createdAt,value
2022-11-15T00:00:35.769Z,95.63
2022-11-15T00:03:03.897Z,98.68
2022-11-15T00:05:30.945Z,90.63
2022-11-15T00:07:59.170Z,92.00
2022-11-15T00:10:26.138Z,92.35
2022-11-15T00:12:54.252Z,89.93
2022-11-15T00:15:26.217Z,86.35
2022-11-15T00:17:56.410Z,90.20
2022-11-15T00:20:25.471Z,81.07
2022-11-15T00:22:53.561Z,83.80
2022-11-15T00:25:21.714Z,78.15
2022-11-15T00:28:01.278Z,88.03
2022-11-15T00:30:50.020Z,78.88
2022-11-15T00:33:18.793Z,80.47
2022-11-15T00:38:41.960Z,84.93
2022-11-15T00:41:10.464Z,82.85
2022-11-15T00:43:41.342Z,80.05
2022-11-15T00:46:14.843Z,77.40
2022-11-15T00:48:41.951Z,75.03
2022-11-15T00:51:09.119Z,79.20
2022-11-15T00:53:50.559Z,69.57
2022-11-15T00:56:19.578Z,70.35
2022-11-15T00:58:46.681Z,75.70
2022-11-15T01:01:16.240Z,71.53
2022-11-15T01:03:51.544Z,76.45
2022-11-15T01:06:24.680Z,74.28
2022-11-15T01:09:20.093Z,73.43
2022-11-15T01:11:48.204Z,77.93
2022-11-15T01:14:21.444Z,70.03
2022-11-15T01:17:16.611Z,71.47
2022-11-15T01:19:43.609Z,75.63
2022-11-15T01:22:10.751Z,75.70
2022-11-15T01:24:43.920Z,74.50
2022-11-15T01:27:13.016Z,70.15
2022-11-15T01:29:39.983Z,76.15
2022-11-15T01:32:10.035Z,73.38
2022-11-15T01:34:39.116Z,67.93
2022-11-15T01:37:06.285Z,71.55
2022-11-15T01:39:40.567Z,68.40
2022-11-15T01:42:16.222Z,69.95
2022-11-15T01:45:01.685Z,69.00
2022-11-15T01:47:54.172Z,67.75
2022-11-15T01:50:28.331Z,67.72
2022-11-15T01:52:55.770Z,69.93
2022-11-15T01:55:27.763Z,67.88
2022-11-15T01:58:00.909Z,71.05
2022-11-15T02:00:30.816Z,74.68
2022-11-15T02:03:08.472Z,70.32
2022-11-15T02:05:38.552Z,63.30
2022-11-15T02:08:21.259Z,74.18
2022-11-15T02:10:50.403Z,75.45
2022-11-15T02:13:35.131Z,70.30
2022-11-15T02:16:06.516Z,65.03
2022-11-15T02:18:46.374Z,71.05
2022-11-15T02:21:18.623Z,66.95
2022-11-15T02:23:52.484Z,72.70
2022-11-15T02:26:53.792Z,76.15
2022-11-15T02:29:41.553Z,73.28
2022-11-15T02:32:14.039Z,71.30
2022-11-15T02:34:55.599Z,76.72
2022-11-15T02:38:09.383Z,73.18
2022-11-15T02:41:04.355Z,76.82
2022-11-15T02:43:59.188Z,78.90
2022-11-15T02:46:53.189Z,71.55
2022-11-15T02:51:57.262Z,70.25
2022-11-15T02:54:33.499Z,69.65
2022-11-15T02:57:17.158Z,71.75
2022-11-15T03:00:22.907Z,69.00
2022-11-15T03:03:19.419Z,74.15
2022-11-15T03:06:25.795Z,66.63
2022-11-15T03:08:56.646Z,67.72
2022-11-15T03:11:24.776Z,70.00
2022-11-15T03:14:24.027Z,69.32
2022-11-15T03:17:25.849Z,67.70
2022-11-15T03:20:02.503Z,65.82
2022-11-15T03:22:34.493Z,63.45
2022-11-15T03:25:22.490Z,68.88
2022-11-15T03:27:58.708Z,67.15
2022-11-15T03:30:39.148Z,70.57
2022-11-15T03:33:15.420Z,60.20
2022-11-15T03:35:45.770Z,64.00
2022-11-15T03:38:27.830Z,62.63
2022-11-15T03:41:07.394Z,62.55
2022-11-15T03:51:25.353Z,63.65
2022-11-15T03:54:05.939Z,67.10
2022-11-15T03:56:38.872Z,59.42
2022-11-15T03:59:05.990Z,62.08
2022-11-15T04:01:40.094Z,62.38
2022-11-15T04:04:10.202Z,56.60
2022-11-15T04:06:48.400Z,62.60
2022-11-15T04:09:17.539Z,62.90
2022-11-15T04:11:51.331Z,63.35
2022-11-15T04:14:26.347Z,57.00
2022-11-15T04:16:57.524Z,61.80
2022-11-15T04:19:42.986Z,56.35
2022-11-15T04:22:36.220Z,60.47
2022-11-15T04:25:04.453Z,57.83
2022-11-15T04:27:31.423Z,61.95
2022-11-15T04:30:11.088Z,60.30
2022-11-15T04:32:38.160Z,57.65
2022-11-15T04:35:08.768Z,57.60
2022-11-15T04:37:47.970Z,60.40
2022-11-15T04:40:22.399Z,61.85
2022-11-15T04:43:03.393Z,60.92
2022-11-15T04:45:56.723Z,62.42
2022-11-15T04:48:30.729Z,58.72
2022-11-15T04:50:58.851Z,59.83
2022-11-15T04:53:51.632Z,61.97
2022-11-15T04:56:19.903Z,64.20
2022-11-15T04:58:52.121Z,64.10
2022-11-15T05:01:19.294Z,61.65
2022-11-15T05:04:11.743Z,62.38
2022-11-15T05:06:39.881Z,64.38
2022-11-15T05:09:09.030Z,65.63
2022-11-15T05:11:36.178Z,59.05
2022-11-15T05:14:11.444Z,64.88
2022-11-15T05:16:38.542Z,60.35
2022-11-15T05:19:07.570Z,63.13
2022-11-15T05:21:45.853Z,68.05
2022-11-15T05:24:15.869Z,63.63
2022-11-15T05:26:42.937Z,60.65
2022-11-15T05:29:11.293Z,63.28
2022-11-15T05:31:42.724Z,69.35
2022-11-15T05:34:10.020Z,62.05
2022-11-15T05:36:43.965Z,63.90
2022-11-15T05:39:12.058Z,67.38
2022-11-15T05:41:46.007Z,65.28
2022-11-15T05:44:15.867Z,65.97
2022-11-15T05:46:45.664Z,60.83
2022-11-15T05:49:16.592Z,66.80
2022-11-15T05:51:47.573Z,66.57
2022-11-15T05:54:24.670Z,67.72
2022-11-15T05:56:56.259Z,69.63
2022-11-15T05:59:26.253Z,68.00
2022-11-15T06:01:57.488Z,70.38
2022-11-15T06:04:33.713Z,74.90
2022-11-15T06:07:00.821Z,66.35
2022-11-15T06:09:29.796Z,69.45
2022-11-15T06:12:04.388Z,72.63
2022-11-15T06:14:31.560Z,70.82
2022-11-15T06:16:59.602Z,69.30
2022-11-15T06:19:26.687Z,67.40
2022-11-15T06:21:53.714Z,70.95
2022-11-15T06:24:30.962Z,65.65
2022-11-15T06:26:58.860Z,66.20
2022-11-15T06:29:45.183Z,73.55
2022-11-15T06:32:12.209Z,71.90
2022-11-15T06:34:41.193Z,62.90
2022-11-15T06:37:08.298Z,66.20
2022-11-15T06:39:36.331Z,69.38
2022-11-15T06:42:03.368Z,67.22
2022-11-15T06:44:39.629Z,66.22
2022-11-15T06:47:06.819Z,68.65
2022-11-15T06:49:33.904Z,66.93
2022-11-15T06:52:04.088Z,65.00
2022-11-15T06:54:39.144Z,63.67
2022-11-15T06:57:14.003Z,65.45
2022-11-15T06:59:43.030Z,59.47
2022-11-15T07:02:41.802Z,55.33
2022-11-15T07:05:12.990Z,63.22
2022-11-15T07:08:02.167Z,61.50
2022-11-15T07:10:31.355Z,61.05
2022-11-15T07:13:11.491Z,56.42
2022-11-15T07:15:39.724Z,54.95
2022-11-15T07:18:15.914Z,57.95
2022-11-15T07:20:48.364Z,57.40
2022-11-15T07:23:15.490Z,54.13
2022-11-15T07:25:43.559Z,54.03
2022-11-15T07:28:21.406Z,57.72
2022-11-15T07:30:50.496Z,52.33
2022-11-15T07:33:25.279Z,53.20
2022-11-15T07:35:59.622Z,48.53
2022-11-15T07:38:27.673Z,53.22
2022-11-15T07:41:05.840Z,48.65
2022-11-15T07:43:35.504Z,47.15
2022-11-15T07:46:40.283Z,45.72
2022-11-15T07:49:09.648Z,44.90
2022-11-15T07:51:40.405Z,47.00
2022-11-15T07:54:10.342Z,48.10
2022-11-15T07:56:37.751Z,46.60
2022-11-15T07:59:05.952Z,44.55
2022-11-15T08:01:33.391Z,45.50
2022-11-15T08:04:07.308Z,41.25
2022-11-15T08:06:45.272Z,44.92
2022-11-15T08:09:20.266Z,42.58
2022-11-15T08:11:47.483Z,44.42
2022-11-15T08:14:16.730Z,42.45
2022-11-15T08:16:45.773Z,42.90
2022-11-15T08:19:12.950Z,40.80
2022-11-15T08:21:39.999Z,36.95
2022-11-15T08:24:07.507Z,37.28
2022-11-15T08:26:34.710Z,38.78
2022-11-15T08:29:03.084Z,40.38
2022-11-15T08:31:30.229Z,40.92
2022-11-15T08:33:58.486Z,38.00
2022-11-15T08:36:32.127Z,37.78
2022-11-15T08:39:04.233Z,31.92
2022-11-15T08:41:40.087Z,30.60
2022-11-15T08:44:15.686Z,28.17
2022-11-15T08:46:43.893Z,28.65
2022-11-15T08:49:15.041Z,27.85
2022-11-15T08:51:42.227Z,27.15
2022-11-15T08:54:09.438Z,28.23
2022-11-15T08:57:00.179Z,26.25
2022-11-15T08:59:27.510Z,25.02
2022-11-15T09:01:54.701Z,24.30
2022-11-15T09:04:21.898Z,24.60
2022-11-15T09:06:49.064Z,22.02
2022-11-15T09:09:16.309Z,21.15
2022-11-15T09:11:43.411Z,19.73
2022-11-15T09:14:12.806Z,18.30
2022-11-15T09:16:40.151Z,17.10
2022-11-15T09:19:11.951Z,20.05
2022-11-15T09:21:39.802Z,17.95
2022-11-15T09:24:07.154Z,18.55
2022-11-15T09:26:34.186Z,17.00
2022-11-15T09:29:04.736Z,15.15
2022-11-15T09:31:31.902Z,15.02
2022-11-15T09:33:59.179Z,16.52
2022-11-15T09:36:26.342Z,15.65
2022-11-15T09:38:53.611Z,16.25
2022-11-15T09:41:50.355Z,17.60
2022-11-15T09:44:25.233Z,18.38
2022-11-15T09:47:04.056Z,22.63
2022-11-15T09:49:34.394Z,19.65
2022-11-15T09:52:02.089Z,17.63
2022-11-15T09:54:53.475Z,21.95
2022-11-15T09:57:24.488Z,22.25
2022-11-15T10:00:30.707Z,23.42
2022-11-15T10:03:11.506Z,24.08
2022-11-15T10:05:51.144Z,22.63
2022-11-15T10:08:45.096Z,23.27
2022-11-15T10:11:37.314Z,25.10
2022-11-15T10:14:21.809Z,24.83
2022-11-15T10:17:27.425Z,23.30
2022-11-15T10:20:02.549Z,25.10
2022-11-15T10:22:45.232Z,25.25
2022-11-15T10:25:19.815Z,25.23
2022-11-15T10:28:18.774Z,23.42
2022-11-15T10:30:49.147Z,24.40
2022-11-15T10:33:36.443Z,25.45
2022-11-15T10:36:33.359Z,22.65
2022-11-15T10:39:06.234Z,23.50
2022-11-15T10:41:42.308Z,22.43
2022-11-15T10:44:23.211Z,21.48
2022-11-15T10:47:39.721Z,18.10
2022-11-15T10:50:27.940Z,19.58
2022-11-15T10:52:57.381Z,19.45
2022-11-15T10:55:32.002Z,21.77
2022-11-15T10:58:33.263Z,19.20
2022-11-15T11:01:33.534Z,18.45
2022-11-15T11:04:11.010Z,15.60
2022-11-15T11:06:57.388Z,16.02
2022-11-15T11:09:37.623Z,16.88
2022-11-15T11:12:07.121Z,16.05
2022-11-15T11:14:38.218Z,16.20
2022-11-15T11:17:19.323Z,16.98
2022-11-15T11:19:52.517Z,17.77
2022-11-15T11:22:50.483Z,16.85
2022-11-15T11:25:36.960Z,16.75
2022-11-15T11:28:18.914Z,17.30
2022-11-15T11:30:59.999Z,18.42
2022-11-15T11:33:32.362Z,18.92
2022-11-15T11:36:46.371Z,17.70
2022-11-15T11:39:26.650Z,16.63
2022-11-15T11:42:12.423Z,16.38
2022-11-15T11:44:45.393Z,17.45
2022-11-15T11:47:20.921Z,15.70
2022-11-15T11:49:52.804Z,19.60
2022-11-15T11:52:28.846Z,16.92
2022-11-15T11:55:01.688Z,15.85
2022-11-15T11:58:06.792Z,14.40
2022-11-15T12:00:41.175Z,14.20
2022-11-15T12:03:14.686Z,18.40
2022-11-15T12:05:45.916Z,16.73
2022-11-15T12:08:25.823Z,15.65
2022-11-15T12:11:20.594Z,14.57
2022-11-15T12:13:55.013Z,15.85
2022-11-15T12:16:33.668Z,15.63
2022-11-15T12:19:06.312Z,16.88
2022-11-15T12:22:16.404Z,14.50
2022-11-15T12:24:55.183Z,15.45
2022-11-15T12:27:28.627Z,15.25
2022-11-15T12:32:50.288Z,16.63
2022-11-15T12:35:38.407Z,24.75
2022-11-15T12:38:06.109Z,28.80
2022-11-15T12:40:39.219Z,24.58
2022-11-15T12:43:26.131Z,19.23
2022-11-15T12:45:53.149Z,20.33
2022-11-15T12:48:20.087Z,21.67
2022-11-15T12:50:54.413Z,18.70
2022-11-15T12:53:24.472Z,18.25
2022-11-15T12:56:09.797Z,21.55
2022-11-15T12:59:03.629Z,20.95
2022-11-15T13:01:35.210Z,20.50
2022-11-15T13:04:22.541Z,19.08
2022-11-15T13:07:00.572Z,18.02
2022-11-15T13:09:33.699Z,20.33
2022-11-15T13:12:05.208Z,17.95
2022-11-15T13:14:38.439Z,18.40
2022-11-15T13:17:34.718Z,16.48
2022-11-15T13:20:07.997Z,16.05
2022-11-15T13:23:00.762Z,18.42
2022-11-15T13:25:50.176Z,19.52
2022-11-15T13:28:17.123Z,19.95
2022-11-15T13:30:59.492Z,19.88
2022-11-15T13:33:36.232Z,22.95
2022-11-15T13:36:25.750Z,24.30
2022-11-15T13:39:01.775Z,25.55
2022-11-15T13:41:33.046Z,24.48
2022-11-15T13:44:01.816Z,24.70
2022-11-15T13:46:31.368Z,25.98
2022-11-15T13:49:09.266Z,23.75
2022-11-15T13:51:51.914Z,26.00
2022-11-15T13:54:34.746Z,23.83
2022-11-15T13:57:11.187Z,28.25
2022-11-15T13:59:49.985Z,26.70
2022-11-15T14:02:28.518Z,26.70
2022-11-15T14:04:59.797Z,27.50
2022-11-15T14:07:30.067Z,27.60
2022-11-15T14:09:57.286Z,30.02
2022-11-15T14:12:34.306Z,28.92
2022-11-15T14:15:19.648Z,29.05
2022-11-15T14:17:50.209Z,35.13
2022-11-15T14:20:37.497Z,42.20
2022-11-15T14:23:21.148Z,35.88
2022-11-15T14:25:59.957Z,37.53
2022-11-15T14:28:37.950Z,35.70
2022-11-15T14:31:14.491Z,46.85
2022-11-15T14:33:46.677Z,39.53
2022-11-15T14:36:31.059Z,37.65
2022-11-15T14:39:09.621Z,37.22
2022-11-15T14:41:39.202Z,39.40
2022-11-15T14:44:22.987Z,40.78
2022-11-15T14:46:55.121Z,38.88
2022-11-15T14:49:23.953Z,44.55
2022-11-15T14:51:50.988Z,43.85
2022-11-15T14:54:19.052Z,44.40
2022-11-15T14:57:07.815Z,47.85
2022-11-15T14:59:36.921Z,51.08
2022-11-15T15:02:17.403Z,54.60
2022-11-15T15:04:44.469Z,58.00
2022-11-15T15:07:12.604Z,54.50
2022-11-15T15:09:42.009Z,49.55
2022-11-15T15:12:28.403Z,49.63
2022-11-15T15:14:56.425Z,45.85
2022-11-15T15:17:26.445Z,47.47
2022-11-15T15:19:53.542Z,49.95
2022-11-15T15:22:29.801Z,53.90
2022-11-15T15:24:57.977Z,50.15
2022-11-15T15:27:25.017Z,53.33
2022-11-15T15:29:52.040Z,49.67
2022-11-15T15:32:19.014Z,50.42
2022-11-15T15:34:48.534Z,49.72
2022-11-15T15:37:27.712Z,54.28
2022-11-15T15:39:56.477Z,80.45
2022-11-15T15:42:24.584Z,94.38
2022-11-15T15:44:53.724Z,95.30
2022-11-15T15:47:33.989Z,79.15
2022-11-15T15:50:01.268Z,77.22
2022-11-15T15:52:28.552Z,62.90
2022-11-15T15:57:26.590Z,57.05
2022-11-15T15:59:53.585Z,59.83
2022-11-15T16:02:20.553Z,57.47
2022-11-15T16:04:47.525Z,59.25
2022-11-15T16:07:29.538Z,58.60
2022-11-15T16:10:02.418Z,55.33
2022-11-15T16:12:49.459Z,54.63
2022-11-15T16:15:16.701Z,63.70
2022-11-15T16:18:03.422Z,58.40
2022-11-15T16:20:51.282Z,59.28
2022-11-15T16:23:29.563Z,55.40
2022-11-15T16:25:57.400Z,60.55
2022-11-15T16:28:34.466Z,61.78
2022-11-15T16:31:06.460Z,121.97
2022-11-15T16:33:36.971Z,85.60
2022-11-15T16:36:14.132Z,74.85
2022-11-15T16:38:41.187Z,86.55
2022-11-15T16:41:08.156Z,75.53
2022-11-15T16:43:35.623Z,92.22
2022-11-15T16:46:13.597Z,98.00
2022-11-15T16:48:40.826Z,96.90
2022-11-15T16:51:09.463Z,97.45
2022-11-15T16:53:37.577Z,91.80
2022-11-15T16:56:21.002Z,99.50
2022-11-15T16:58:48.443Z,91.50
2022-11-15T17:01:25.996Z,74.90
2022-11-15T17:03:54.159Z,83.20
2022-11-15T17:06:21.877Z,77.30
2022-11-15T17:08:49.468Z,72.18
2022-11-15T17:11:28.655Z,74.35
2022-11-15T17:13:59.675Z,77.68
2022-11-15T17:16:27.695Z,76.40
2022-11-15T17:18:55.256Z,76.47
2022-11-15T17:21:23.550Z,88.15
2022-11-15T17:23:53.963Z,86.57
2022-11-15T17:26:32.211Z,94.28
2022-11-15T17:29:04.655Z,152.88
2022-11-15T17:31:34.087Z,116.93
2022-11-15T17:34:16.656Z,78.80
2022-11-15T17:36:45.091Z,71.20
2022-11-15T17:39:27.619Z,75.85
2022-11-15T17:41:54.720Z,80.70
2022-11-15T17:44:22.164Z,80.25
2022-11-15T17:46:49.243Z,72.53
2022-11-15T17:49:16.278Z,82.10
2022-11-15T17:51:47.439Z,80.72
2022-11-15T17:56:46.166Z,91.75
2022-11-15T17:59:21.197Z,97.47
2022-11-15T18:01:49.156Z,100.75
2022-11-15T18:04:16.825Z,95.95
2022-11-15T18:06:44.316Z,104.82
2022-11-15T18:09:13.274Z,102.53
2022-11-15T18:11:43.875Z,140.98
2022-11-15T18:14:19.237Z,107.88
2022-11-15T18:16:47.218Z,132.65
2022-11-15T18:19:16.396Z,120.57
2022-11-15T18:21:59.309Z,113.47
2022-11-15T18:24:35.577Z,117.88
2022-11-15T18:27:05.687Z,131.73
2022-11-15T18:29:35.809Z,128.15
2022-11-15T18:32:05.999Z,137.93
2022-11-15T18:34:34.591Z,155.23
2022-11-15T18:37:08.815Z,159.32
2022-11-15T18:39:36.375Z,126.75
2022-11-15T18:42:15.172Z,134.32
2022-11-15T18:44:42.289Z,137.57
2022-11-15T18:47:10.589Z,133.43
2022-11-15T18:49:37.734Z,182.38
2022-11-15T18:52:04.873Z,151.15
2022-11-15T18:54:34.603Z,116.40
2022-11-15T18:57:02.125Z,103.90
2022-11-15T18:59:30.118Z,83.35
2022-11-15T19:01:57.723Z,95.95
2022-11-15T19:04:28.120Z,91.15
2022-11-15T19:06:59.164Z,87.15
2022-11-15T19:09:33.381Z,88.93
2022-11-15T19:12:01.032Z,104.72
2022-11-15T19:14:28.708Z,104.32
2022-11-15T19:16:57.221Z,105.70
2022-11-15T19:19:28.966Z,98.25
2022-11-15T19:21:58.703Z,91.78
2022-11-15T19:24:27.757Z,96.88
2022-11-15T19:26:58.753Z,100.20
2022-11-15T19:29:26.220Z,99.15
2022-11-15T19:31:57.682Z,85.15
2022-11-15T19:34:24.903Z,99.03
2022-11-15T19:36:54.560Z,88.72
2022-11-15T19:39:21.850Z,80.68
2022-11-15T19:41:50.674Z,88.57
2022-11-15T19:44:20.034Z,90.10
2022-11-15T19:47:00.176Z,90.03
2022-11-15T19:49:28.191Z,80.38
2022-11-15T19:51:57.498Z,81.78
2022-11-15T19:54:24.943Z,80.03
2022-11-15T19:56:52.469Z,78.95
2022-11-15T19:59:22.661Z,78.10
2022-11-15T20:01:49.805Z,76.40
2022-11-15T20:04:17.006Z,105.55
2022-11-15T20:06:45.063Z,86.90
2022-11-15T20:09:15.578Z,80.88
2022-11-15T20:11:43.814Z,74.97
2022-11-15T20:14:13.554Z,88.57
2022-11-15T20:16:41.494Z,108.90
2022-11-15T20:19:09.138Z,212.55
2022-11-15T20:21:38.494Z,231.02
2022-11-15T20:24:06.521Z,169.43
2022-11-15T20:26:34.044Z,159.85
2022-11-15T20:29:03.889Z,161.77
2022-11-15T20:31:31.876Z,158.13
2022-11-15T20:33:59.524Z,132.23
2022-11-15T20:36:28.406Z,108.40
2022-11-15T20:39:00.550Z,103.57
2022-11-15T20:41:28.483Z,104.18
2022-11-15T20:43:55.662Z,281.80
2022-11-15T20:46:23.297Z,133.48
2022-11-15T20:48:51.374Z,118.70
2022-11-15T20:51:19.817Z,112.55
2022-11-15T20:53:58.694Z,108.15
2022-11-15T20:56:32.749Z,107.90
2022-11-15T20:59:04.157Z,101.18
2022-11-15T21:01:36.512Z,114.20
2022-11-15T21:04:04.197Z,119.20
2022-11-15T21:06:38.225Z,124.25
2022-11-15T21:09:34.033Z,128.55
2022-11-15T21:12:14.024Z,128.65
2022-11-15T21:14:44.384Z,224.52
2022-11-15T21:17:12.833Z,115.63
2022-11-15T21:19:43.037Z,107.15
2022-11-15T21:22:13.404Z,102.13
2022-11-15T21:24:40.917Z,96.90
2022-11-15T21:27:09.223Z,92.30
2022-11-15T21:29:39.003Z,89.57
2022-11-15T21:32:10.566Z,102.07
2022-11-15T21:34:48.015Z,102.88
2022-11-15T21:37:15.088Z,96.22
2022-11-15T21:39:48.452Z,97.75
2022-11-15T21:43:05.677Z,98.15
2022-11-15T21:45:39.136Z,112.20
2022-11-15T21:48:30.180Z,116.00
2022-11-15T21:51:03.191Z,108.43
2022-11-15T21:53:36.150Z,107.90
2022-11-15T21:56:22.070Z,104.72
2022-11-15T21:58:51.253Z,127.30
2022-11-15T22:01:47.498Z,140.40
2022-11-15T22:04:21.728Z,107.43
2022-11-15T22:06:48.854Z,112.30
2022-11-15T22:09:16.880Z,103.28
2022-11-15T22:11:46.007Z,99.22
2022-11-15T22:14:15.258Z,112.15
2022-11-15T22:16:43.427Z,102.60
2022-11-15T22:19:10.412Z,92.90
2022-11-15T22:21:41.077Z,95.38
2022-11-15T22:24:21.864Z,98.50
2022-11-15T22:26:48.923Z,77.10
2022-11-15T22:29:15.930Z,86.78
2022-11-15T22:31:49.974Z,98.35
2022-11-15T22:34:25.496Z,83.78
2022-11-15T22:39:44.572Z,83.78
2022-11-15T22:42:13.821Z,94.35
2022-11-15T22:44:40.786Z,84.22
2022-11-15T22:47:09.843Z,91.47
2022-11-15T22:49:36.862Z,88.97
2022-11-15T22:52:04.070Z,83.45
2022-11-15T22:54:31.218Z,90.22
2022-11-15T22:57:01.163Z,89.63
2022-11-15T22:59:49.896Z,90.18
2022-11-15T23:02:38.821Z,83.45
2022-11-15T23:05:19.366Z,80.32
2022-11-15T23:07:54.580Z,87.57
2022-11-15T23:10:42.235Z,88.47
2022-11-15T23:13:17.146Z,95.30
2022-11-15T23:16:10.360Z,95.35
2022-11-15T23:18:39.418Z,87.20
2022-11-15T23:21:51.706Z,90.85
2022-11-15T23:24:38.729Z,86.13
2022-11-15T23:27:09.772Z,85.72
2022-11-15T23:30:18.511Z,85.82
2022-11-15T23:33:05.277Z,82.90
2022-11-15T23:35:38.179Z,76.85
2022-11-15T23:38:10.244Z,79.82
2022-11-15T23:40:40.425Z,76.90
2022-11-15T23:43:07.504Z,81.45
2022-11-15T23:45:38.264Z,89.60
2022-11-15T23:48:24.957Z,80.07
2022-11-15T23:50:51.999Z,78.65
2022-11-15T23:53:20.435Z,78.28
2022-11-15T23:56:00.467Z,76.07
2022-11-15T23:58:30.704Z,70.65
